Otto, Arkansas
Current Conditions -  °F | °C
As of 6:58 AM on Thursday 23 Oct 2014 (Local Time) from KLRF Reporting Station
Broken Clouds Broken Clouds  
Wind Chill: 44°   Ceiling: 22000
Heat Index: 44°   Visibility: 10mi
Dew Point: 41°   Wind: 0mph
Humidity: 91%   Direction: NA
Pressure: 30.19"   Gusts: NA
Location:  35.0719°N, 92.1713°W
Report Text: KLRF 231158Z AUTO 00000KT 10SM BKN220 07/05 A3019 RMK AO2 SLP226 T00660052 10068 20048 52005
Loading
Personal Weather Stations






























Interactive Weather Map
Tropical Storm Tracking
New forecast layout! Learn more

10-Day Weather Forecast

Advertisements
Track Severe Weather on mobile